Time;durP1;ratioP1;P1;durP2;ratioP2;P2;SDS_P1;SDS_P2;PMS_P1;PMS_P2;Temp;Humidity;BMP_temperature;BMP_pressure;BME280_temperature;BME280_humidity;BME280_pressure;Samples;Min_cycle;Max_cycle;Signal;HPM_P1;HPM_P2
2023/07/02 00:01:43;;;;;;;11.30;10.80;;;;;;;;;;5048793;28;20049;-63
2023/07/02 00:04:09;;;;;;;11.25;10.75;;;;;;;;;;5048056;28;20031;-62
2023/07/02 00:06:40;;;;;;;12.02;11.43;;;;;;;;;;5048358;28;20488;-63
2023/07/02 00:09:05;;;;;;;11.90;11.30;;;;;;;;;;5040357;28;20026;-64
2023/07/02 00:11:30;;;;;;;11.93;11.32;;;;;;;;;;5045835;28;20123;-62
2023/07/02 00:13:56;;;;;;;11.70;11.20;;;;;;;;;;5050304;28;20079;-63
2023/07/02 00:16:21;;;;;;;11.83;11.30;;;;;;;;;;5050248;28;20029;-63
2023/07/02 00:18:52;;;;;;;11.63;11.10;;;;;;;;;;5048360;28;20625;-63
2023/07/02 00:21:20;;;;;;;11.60;11.05;;;;;;;;;;5046173;28;20376;-63
2023/07/02 00:23:46;;;;;;;12.43;11.82;;;;;;;;;;5041115;28;20025;-63
2023/07/02 00:26:11;;;;;;;12.10;11.50;;;;;;;;;;5053841;28;20541;-62
2023/07/02 00:28:36;;;;;;;13.00;12.30;;;;;;;;;;5046995;28;20503;-62
2023/07/02 00:31:02;;;;;;;12.13;11.52;;;;;;;;;;5038368;28;20061;-62
2023/07/02 00:33:28;;;;;;;12.25;11.65;;;;;;;;;;5045322;28;20021;-64
2023/07/02 00:35:54;;;;;;;12.18;11.57;;;;;;;;;;5045337;28;20392;-61
2023/07/02 00:38:19;;;;;;;12.05;11.45;;;;;;;;;;5039438;28;20021;-62
2023/07/02 00:40:44;;;;;;;11.88;11.27;;;;;;;;;;5048909;28;20025;-63
2023/07/02 00:43:12;;;;;;;11.90;11.32;;;;;;;;;;5048144;28;20029;-62
2023/07/02 00:45:39;;;;;;;12.65;12.02;;;;;;;;;;5037637;28;20105;-63
2023/07/02 00:48:07;;;;;;;11.70;11.18;;;;;;;;;;5038992;28;20021;-62
2023/07/02 00:50:32;;;;;;;11.30;10.80;;;;;;;;;;5046440;28;20025;-62
2023/07/02 00:52:58;;;;;;;11.98;11.38;;;;;;;;;;5043087;28;20036;-62
2023/07/02 00:55:23;;;;;;;12.77;12.15;;;;;;;;;;5040024;28;20029;-64
2023/07/02 00:57:49;;;;;;;11.35;10.85;;;;;;;;;;5044974;28;20031;-63
2023/07/02 01:00:15;;;;;;;12.48;11.88;;;;;;;;;;5021958;28;20041;-63
2023/07/02 01:02:43;;;;;;;12.10;11.50;;;;;;;;;;5048348;28;20498;-63
2023/07/02 01:05:21;;;;;;;12.10;11.50;;;;;;;;;;5038443;28;20017;-62
2023/07/02 01:07:46;;;;;;;12.98;12.27;;;;;;;;;;5041434;28;20044;-64
2023/07/02 01:10:12;;;;;;;11.48;10.98;;;;;;;;;;5043609;28;20467;-65
2023/07/02 01:12:37;;;;;;;11.60;11.10;;;;;;;;;;5050630;28;20112;-65
2023/07/02 01:15:04;;;;;;;11.68;11.18;;;;;;;;;;5050684;28;20021;-64
2023/07/02 01:17:37;;;;;;;11.98;11.38;;;;;;;;;;5046829;28;20376;-64
2023/07/02 01:20:03;;;;;;;11.77;11.20;;;;;;;;;;5023844;28;20021;-65
2023/07/02 01:22:28;;;;;;;12.50;11.90;;;;;;;;;;5047377;28;20019;-65
2023/07/02 01:24:54;;;;;;;11.50;11.00;;;;;;;;;;5052520;28;20431;-65
2023/07/02 01:27:21;;;;;;;11.88;11.27;;;;;;;;;;5048649;28;20104;-65
2023/07/02 01:29:46;;;;;;;11.48;10.98;;;;;;;;;;5046604;28;20032;-65
2023/07/02 01:32:12;;;;;;;11.35;10.85;;;;;;;;;;5046662;28;20037;-65
2023/07/02 01:34:37;;;;;;;12.00;11.40;;;;;;;;;;5054083;28;20017;-64
2023/07/02 01:37:03;;;;;;;11.93;11.32;;;;;;;;;;5053775;28;20025;-66
2023/07/02 01:39:29;;;;;;;11.43;10.93;;;;;;;;;;5050972;28;20039;-65
2023/07/02 01:41:55;;;;;;;11.60;11.10;;;;;;;;;;5052007;28;20024;-65
2023/07/02 01:44:20;;;;;;;11.50;11.00;;;;;;;;;;5052366;28;20043;-64
2023/07/02 01:46:49;;;;;;;11.40;10.90;;;;;;;;;;5054207;28;20016;-64
2023/07/02 01:49:20;;;;;;;11.50;11.00;;;;;;;;;;5046816;28;20040;-64
2023/07/02 01:51:49;;;;;;;11.90;11.30;;;;;;;;;;5040468;28;20626;-64
2023/07/02 01:54:15;;;;;;;11.73;11.20;;;;;;;;;;5052104;28;20472;-65
2023/07/02 01:56:40;;;;;;;11.85;11.25;;;;;;;;;;5045128;28;20035;-64
2023/07/02 01:59:05;;;;;;;11.45;10.95;;;;;;;;;;5048633;28;20036;-66
2023/07/02 02:01:32;;;;;;;11.57;11.07;;;;;;;;;;5052906;28;20048;-65
2023/07/02 02:03:58;;;;;;;12.00;11.40;;;;;;;;;;5050463;28;20303;-63
2023/07/02 02:06:23;;;;;;;12.35;11.75;;;;;;;;;;5048267;28;20017;-64
2023/07/02 02:08:48;;;;;;;11.85;11.25;;;;;;;;;;5051817;28;20400;-65
2023/07/02 02:11:13;;;;;;;11.60;11.10;;;;;;;;;;5041539;28;20021;-65
2023/07/02 02:13:39;;;;;;;11.45;10.95;;;;;;;;;;5051861;28;20100;-65
2023/07/02 02:16:04;;;;;;;11.93;11.32;;;;;;;;;;5052125;28;20025;-65
2023/07/02 02:18:30;;;;;;;11.73;11.18;;;;;;;;;;5053039;28;20033;-65
2023/07/02 02:20:55;;;;;;;11.70;11.15;;;;;;;;;;5042927;28;20013;-64
2023/07/02 02:23:20;;;;;;;12.00;11.40;;;;;;;;;;5057330;28;21084;-64
2023/07/02 02:25:46;;;;;;;11.85;11.25;;;;;;;;;;5049033;28;20092;-64
2023/07/02 02:28:11;;;;;;;11.10;10.60;;;;;;;;;;5053225;28;20103;-63
2023/07/02 02:30:36;;;;;;;12.15;11.55;;;;;;;;;;5049566;28;20078;-65
2023/07/02 02:33:01;;;;;;;11.85;11.30;;;;;;;;;;5051961;28;20021;-64
2023/07/02 02:35:27;;;;;;;12.00;11.40;;;;;;;;;;5030769;28;20044;-65
2023/07/02 02:37:52;;;;;;;11.40;10.90;;;;;;;;;;5047876;28;20499;-65
2023/07/02 02:40:17;;;;;;;11.95;11.35;;;;;;;;;;5051924;28;20032;-64
2023/07/02 02:42:43;;;;;;;11.98;11.38;;;;;;;;;;5049998;28;20020;-66
2023/07/02 02:45:08;;;;;;;11.73;11.13;;;;;;;;;;5052539;28;20025;-66
2023/07/02 02:47:33;;;;;;;11.40;10.90;;;;;;;;;;5047652;28;20021;-65
2023/07/02 02:49:59;;;;;;;11.63;11.13;;;;;;;;;;5046856;28;20025;-66
2023/07/02 02:52:25;;;;;;;11.77;11.18;;;;;;;;;;5042403;28;20036;-65
2023/07/02 02:54:52;;;;;;;11.25;10.75;;;;;;;;;;5049339;28;20056;-64
2023/07/02 02:57:18;;;;;;;11.82;11.23;;;;;;;;;;5043483;28;20025;-64
2023/07/02 02:59:43;;;;;;;11.68;11.18;;;;;;;;;;5052578;28;20040;-65
2023/07/02 03:02:08;;;;;;;12.32;11.73;;;;;;;;;;5041453;28;20045;-67
2023/07/02 03:04:34;;;;;;;11.90;11.38;;;;;;;;;;5048756;28;20051;-65
2023/07/02 03:06:59;;;;;;;12.02;11.45;;;;;;;;;;5026914;28;20031;-65
2023/07/02 03:09:24;;;;;;;11.57;11.07;;;;;;;;;;5049959;28;20017;-66
2023/07/02 03:11:50;;;;;;;11.65;11.15;;;;;;;;;;5049318;28;20515;-65
2023/07/02 03:14:15;;;;;;;11.90;11.40;;;;;;;;;;5051537;28;20035;-65
2023/07/02 03:16:42;;;;;;;11.60;11.10;;;;;;;;;;5044360;28;20030;-65
2023/07/02 03:19:07;;;;;;;12.25;11.65;;;;;;;;;;5050772;28;20029;-65
2023/07/02 03:21:32;;;;;;;11.73;11.23;;;;;;;;;;5046103;28;20021;-64
2023/07/02 03:23:58;;;;;;;11.63;11.13;;;;;;;;;;5055509;28;20035;-65
2023/07/02 03:26:23;;;;;;;12.70;12.10;;;;;;;;;;5049394;28;20066;-65
2023/07/02 03:28:49;;;;;;;11.52;11.02;;;;;;;;;;5048797;28;20357;-65
2023/07/02 03:31:14;;;;;;;11.77;11.27;;;;;;;;;;5052405;28;20041;-64
2023/07/02 03:33:40;;;;;;;11.20;10.70;;;;;;;;;;5052244;28;20048;-65
2023/07/02 03:36:06;;;;;;;11.98;11.48;;;;;;;;;;5051601;28;20017;-65
2023/07/02 03:38:32;;;;;;;11.75;11.25;;;;;;;;;;5048971;28;20021;-65
2023/07/02 03:40:57;;;;;;;11.77;11.27;;;;;;;;;;5047904;28;20027;-65
2023/07/02 03:43:22;;;;;;;11.97;11.47;;;;;;;;;;5049495;28;20353;-65
2023/07/02 03:45:47;;;;;;;11.47;10.97;;;;;;;;;;5047290;28;20334;-64
2023/07/02 03:48:13;;;;;;;12.73;12.13;;;;;;;;;;5038586;28;20714;-65
2023/07/02 03:50:38;;;;;;;11.55;11.05;;;;;;;;;;5053427;28;20032;-65
2023/07/02 03:53:03;;;;;;;12.23;11.70;;;;;;;;;;5052454;28;20029;-66
2023/07/02 03:55:28;;;;;;;11.80;11.30;;;;;;;;;;5046874;28;20266;-66
2023/07/02 03:57:54;;;;;;;11.50;11.00;;;;;;;;;;5050898;28;20074;-64
2023/07/02 04:00:19;;;;;;;11.80;11.30;;;;;;;;;;5045903;28;20803;-65
2023/07/02 04:02:46;;;;;;;11.63;11.13;;;;;;;;;;5044910;28;20649;-66
2023/07/02 04:05:11;;;;;;;12.07;11.57;;;;;;;;;;5042002;28;20031;-64
2023/07/02 04:07:36;;;;;;;11.93;11.43;;;;;;;;;;5047603;28;20032;-65
2023/07/02 04:10:02;;;;;;;11.60;11.10;;;;;;;;;;5053560;28;20025;-65
2023/07/02 04:12:27;;;;;;;11.50;11.00;;;;;;;;;;5044073;28;20487;-65
2023/07/02 04:14:53;;;;;;;11.55;11.05;;;;;;;;;;5050424;28;20473;-66
2023/07/02 04:17:18;;;;;;;11.90;11.40;;;;;;;;;;5043966;28;20033;-65
2023/07/02 04:19:44;;;;;;;11.75;11.25;;;;;;;;;;5050935;28;20033;-65
2023/07/02 04:22:09;;;;;;;11.68;11.18;;;;;;;;;;5050432;28;20119;-66
2023/07/02 04:24:34;;;;;;;11.90;11.40;;;;;;;;;;5045337;28;20025;-66
2023/07/02 04:26:59;;;;;;;11.60;11.10;;;;;;;;;;5040163;28;20630;-64
2023/07/02 04:29:25;;;;;;;11.50;11.00;;;;;;;;;;5049245;28;20036;-64
2023/07/02 04:31:50;;;;;;;11.60;11.10;;;;;;;;;;5045801;28;20026;-64
2023/07/02 04:34:15;;;;;;;11.60;11.10;;;;;;;;;;5050495;28;20419;-64
2023/07/02 04:36:41;;;;;;;11.50;11.00;;;;;;;;;;5048096;28;20020;-64
2023/07/02 04:39:07;;;;;;;11.23;10.73;;;;;;;;;;5050443;28;20398;-64
2023/07/02 04:41:33;;;;;;;11.30;10.80;;;;;;;;;;5049881;28;20029;-64
2023/07/02 04:43:58;;;;;;;11.30;10.80;;;;;;;;;;5040496;28;20495;-63
2023/07/02 04:46:24;;;;;;;11.70;11.20;;;;;;;;;;5049684;28;20246;-65
2023/07/02 04:48:49;;;;;;;11.37;10.87;;;;;;;;;;5045734;28;20041;-64
2023/07/02 04:51:14;;;;;;;11.03;10.53;;;;;;;;;;5049594;28;20281;-65
2023/07/02 04:53:40;;;;;;;11.00;10.50;;;;;;;;;;5050409;28;20274;-64
2023/07/02 04:56:05;;;;;;;11.20;10.70;;;;;;;;;;5052007;28;20017;-63
2023/07/02 04:58:30;;;;;;;11.60;11.10;;;;;;;;;;5051292;28;20613;-64
2023/07/02 05:00:56;;;;;;;11.00;10.50;;;;;;;;;;5053482;28;20088;-64
2023/07/02 05:03:21;;;;;;;11.50;11.00;;;;;;;;;;5051013;28;20029;-64
2023/07/02 05:05:46;;;;;;;11.40;10.90;;;;;;;;;;5049428;28;20278;-64
2023/07/02 05:08:12;;;;;;;11.50;11.00;;;;;;;;;;5052323;28;20476;-64
2023/07/02 05:10:37;;;;;;;11.40;10.90;;;;;;;;;;5053755;28;20060;-64
2023/07/02 05:13:02;;;;;;;11.47;10.97;;;;;;;;;;5051680;28;20415;-64
2023/07/02 05:15:27;;;;;;;11.33;10.83;;;;;;;;;;5054988;28;20025;-64
2023/07/02 05:17:53;;;;;;;11.50;11.00;;;;;;;;;;5052327;28;20417;-63
2023/07/02 05:20:18;;;;;;;11.35;10.85;;;;;;;;;;5047978;28;20803;-64
2023/07/02 05:22:43;;;;;;;11.43;10.93;;;;;;;;;;5040562;28;20017;-64
2023/07/02 05:25:09;;;;;;;11.00;10.50;;;;;;;;;;5053315;28;20017;-65
2023/07/02 05:27:34;;;;;;;11.07;10.57;;;;;;;;;;5048393;28;20032;-64
2023/07/02 05:29:59;;;;;;;11.13;10.63;;;;;;;;;;5040120;28;20309;-64
2023/07/02 05:32:25;;;;;;;11.57;11.07;;;;;;;;;;5039934;28;20293;-63
2023/07/02 05:34:50;;;;;;;11.23;10.73;;;;;;;;;;5049013;28;20335;-62
2023/07/02 05:37:15;;;;;;;11.40;10.90;;;;;;;;;;5043488;28;20031;-62
2023/07/02 05:39:41;;;;;;;11.80;11.30;;;;;;;;;;5051264;28;20107;-62
2023/07/02 05:42:06;;;;;;;11.32;10.82;;;;;;;;;;5045812;28;20052;-64
2023/07/02 05:44:31;;;;;;;11.20;10.70;;;;;;;;;;5044437;28;20240;-61
2023/07/02 05:46:57;;;;;;;11.23;10.73;;;;;;;;;;5040563;28;20028;-62
2023/07/02 05:49:22;;;;;;;11.47;10.97;;;;;;;;;;5043851;28;20373;-62
2023/07/02 05:51:47;;;;;;;11.30;10.80;;;;;;;;;;5046692;28;20029;-60
2023/07/02 05:54:13;;;;;;;11.32;10.82;;;;;;;;;;5046987;28;20033;-61
2023/07/02 05:56:38;;;;;;;11.60;11.10;;;;;;;;;;5042173;28;20190;-62
2023/07/02 05:59:03;;;;;;;11.50;11.00;;;;;;;;;;5043076;28;20270;-62
2023/07/02 06:01:28;;;;;;;11.83;11.33;;;;;;;;;;5045081;28;20442;-60
2023/07/02 06:03:54;;;;;;;11.47;10.97;;;;;;;;;;5051063;28;20029;-60
2023/07/02 06:06:22;;;;;;;11.32;10.82;;;;;;;;;;5050557;28;20479;-61
2023/07/02 06:08:47;;;;;;;11.55;11.05;;;;;;;;;;5052123;28;20099;-60
2023/07/02 06:11:13;;;;;;;11.48;10.98;;;;;;;;;;5052111;28;20182;-59
2023/07/02 06:13:38;;;;;;;11.40;10.90;;;;;;;;;;5045186;28;20087;-61
2023/07/02 06:16:03;;;;;;;11.73;11.23;;;;;;;;;;5044809;28;20281;-60
2023/07/02 06:18:29;;;;;;;11.50;11.00;;;;;;;;;;5045475;28;20039;-61
2023/07/02 06:20:54;;;;;;;11.60;11.10;;;;;;;;;;5035685;28;20028;-62
2023/07/02 06:23:19;;;;;;;11.80;11.30;;;;;;;;;;5044849;28;20505;-59
2023/07/02 06:25:45;;;;;;;11.93;11.43;;;;;;;;;;5040795;28;20251;-59
2023/07/02 06:28:10;;;;;;;11.47;10.97;;;;;;;;;;5043812;28;20120;-61
2023/07/02 06:30:35;;;;;;;11.37;10.87;;;;;;;;;;5050414;28;20048;-60
2023/07/02 06:33:00;;;;;;;12.10;11.60;;;;;;;;;;5044958;28;20021;-59
2023/07/02 06:35:26;;;;;;;11.73;11.23;;;;;;;;;;5044499;28;20028;-61
2023/07/02 06:37:51;;;;;;;11.37;10.87;;;;;;;;;;5038869;28;20028;-61
2023/07/02 06:40:16;;;;;;;12.20;11.70;;;;;;;;;;5044775;28;20284;-60
2023/07/02 06:42:42;;;;;;;11.40;10.90;;;;;;;;;;5047458;28;20280;-61
2023/07/02 06:45:07;;;;;;;11.80;11.30;;;;;;;;;;5036281;28;20032;-63
2023/07/02 06:47:32;;;;;;;11.40;10.90;;;;;;;;;;5042797;28;20018;-63
2023/07/02 06:49:59;;;;;;;12.10;11.60;;;;;;;;;;5026327;28;20028;-62
2023/07/02 06:52:24;;;;;;;11.80;11.30;;;;;;;;;;5039008;28;20017;-61
2023/07/02 06:54:49;;;;;;;11.55;11.05;;;;;;;;;;5042025;28;20157;-60
2023/07/02 06:57:15;;;;;;;11.50;11.00;;;;;;;;;;5038420;28;20025;-61
2023/07/02 06:59:40;;;;;;;11.77;11.27;;;;;;;;;;5037578;28;20059;-61
2023/07/02 07:02:06;;;;;;;11.60;11.10;;;;;;;;;;5041928;28;20278;-61
2023/07/02 07:04:31;;;;;;;11.60;11.10;;;;;;;;;;5039029;28;20017;-61
2023/07/02 07:06:56;;;;;;;11.90;11.40;;;;;;;;;;5042118;28;20095;-60
2023/07/02 07:09:22;;;;;;;11.68;11.18;;;;;;;;;;5044646;28;20028;-60
2023/07/02 07:11:47;;;;;;;11.43;10.93;;;;;;;;;;5049049;28;20051;-60
2023/07/02 07:14:12;;;;;;;11.85;11.35;;;;;;;;;;5039848;28;20346;-61
2023/07/02 07:16:38;;;;;;;11.63;11.13;;;;;;;;;;5044283;28;20021;-62
2023/07/02 07:19:03;;;;;;;11.47;10.97;;;;;;;;;;5045545;28;20020;-59
2023/07/02 07:21:28;;;;;;;11.65;11.15;;;;;;;;;;5049966;28;20489;-61
2023/07/02 07:23:54;;;;;;;11.20;10.70;;;;;;;;;;5038148;28;20030;-60
2023/07/02 07:26:19;;;;;;;11.47;10.97;;;;;;;;;;5049325;28;20515;-60
2023/07/02 07:28:44;;;;;;;11.47;10.97;;;;;;;;;;5041514;28;20104;-61
2023/07/02 07:31:09;;;;;;;11.53;11.03;;;;;;;;;;5040293;28;20306;-61
2023/07/02 07:33:35;;;;;;;11.90;11.40;;;;;;;;;;5042132;28;20163;-62
2023/07/02 07:36:01;;;;;;;11.65;11.15;;;;;;;;;;5041879;28;20025;-63
2023/07/02 07:38:26;;;;;;;11.82;11.32;;;;;;;;;;5044275;28;20028;-62
2023/07/02 07:40:51;;;;;;;12.00;11.50;;;;;;;;;;5046692;28;20025;-62
2023/07/02 07:43:17;;;;;;;12.60;12.00;;;;;;;;;;5042837;28;20021;-61
2023/07/02 07:45:42;;;;;;;11.98;11.48;;;;;;;;;;5043421;28;20270;-61
2023/07/02 07:48:07;;;;;;;12.00;11.50;;;;;;;;;;5043230;28;20546;-60
2023/07/02 07:50:32;;;;;;;12.25;11.73;;;;;;;;;;5041610;28;20021;-62
2023/07/02 07:52:58;;;;;;;12.40;11.80;;;;;;;;;;5047826;28;20057;-62
2023/07/02 07:55:23;;;;;;;12.27;11.68;;;;;;;;;;5046421;28;20269;-61
2023/07/02 07:57:49;;;;;;;12.35;11.75;;;;;;;;;;5042649;28;20472;-61
2023/07/02 08:00:14;;;;;;;13.10;12.50;;;;;;;;;;5046777;28;20052;-62
2023/07/02 08:02:40;;;;;;;11.60;11.10;;;;;;;;;;5042960;28;20136;-61
2023/07/02 08:05:06;;;;;;;11.80;11.30;;;;;;;;;;5043171;28;20248;-61
2023/07/02 08:07:31;;;;;;;11.90;11.40;;;;;;;;;;5045716;28;20032;-63
2023/07/02 08:09:57;;;;;;;11.70;11.20;;;;;;;;;;5045803;28;20025;-61
2023/07/02 08:12:22;;;;;;;11.73;11.23;;;;;;;;;;5040281;28;20422;-62
2023/07/02 08:14:47;;;;;;;12.45;11.85;;;;;;;;;;5040522;28;20045;-60
2023/07/02 08:17:12;;;;;;;12.63;12.02;;;;;;;;;;5040488;28;20369;-61
2023/07/02 08:19:38;;;;;;;12.27;11.67;;;;;;;;;;5045427;28;20101;-61
2023/07/02 08:22:03;;;;;;;12.30;11.70;;;;;;;;;;5039986;28;20487;-61
2023/07/02 08:24:30;;;;;;;11.85;11.35;;;;;;;;;;5044595;28;20036;-61
2023/07/02 08:26:56;;;;;;;12.75;12.15;;;;;;;;;;5043894;28;20032;-60
2023/07/02 08:29:21;;;;;;;12.23;11.63;;;;;;;;;;5049898;28;20016;-61
2023/07/02 08:31:46;;;;;;;11.68;11.18;;;;;;;;;;5049527;28;20575;-61
2023/07/02 08:34:12;;;;;;;11.60;11.10;;;;;;;;;;5045522;28;20413;-62
2023/07/02 08:36:37;;;;;;;12.55;11.95;;;;;;;;;;5051233;28;20033;-61
2023/07/02 08:39:04;;;;;;;11.70;11.20;;;;;;;;;;5048390;28;20040;-61
2023/07/02 08:41:29;;;;;;;11.93;11.43;;;;;;;;;;5044033;28;20056;-61
2023/07/02 08:43:56;;;;;;;12.10;11.60;;;;;;;;;;5048881;28;20048;-61
2023/07/02 08:46:21;;;;;;;12.50;11.90;;;;;;;;;;5049094;28;20036;-61
2023/07/02 08:48:47;;;;;;;12.60;12.00;;;;;;;;;;5046280;28;20024;-60
2023/07/02 08:51:12;;;;;;;11.88;11.38;;;;;;;;;;5048030;28;20098;-61
2023/07/02 08:53:37;;;;;;;12.05;11.52;;;;;;;;;;5050560;28;20020;-61
2023/07/02 08:56:03;;;;;;;12.40;11.80;;;;;;;;;;5028787;28;20021;-60
2023/07/02 08:58:28;;;;;;;11.57;11.07;;;;;;;;;;5039785;28;20285;-61
2023/07/02 09:01:09;;;;;;;11.90;11.40;;;;;;;;;;5048288;28;20056;-62
2023/07/02 09:03:37;;;;;;;11.98;11.48;;;;;;;;;;5044940;28;20075;-61
2023/07/02 09:06:02;;;;;;;11.60;11.10;;;;;;;;;;5040054;28;20029;-61
2023/07/02 09:08:28;;;;;;;11.80;11.30;;;;;;;;;;5045451;28;20043;-61
2023/07/02 09:11:14;;;;;;;12.00;11.50;;;;;;;;;;5042257;28;20036;-60
2023/07/02 09:13:43;;;;;;;12.15;11.55;;;;;;;;;;5042372;28;20385;-59
2023/07/02 09:16:19;;;;;;;11.75;11.25;;;;;;;;;;5043661;28;20032;-61
2023/07/02 09:18:54;;;;;;;11.70;11.20;;;;;;;;;;5044931;28;20357;-61
2023/07/02 09:21:20;;;;;;;11.57;11.07;;;;;;;;;;5037783;28;20552;-61
2023/07/02 09:23:45;;;;;;;12.60;12.00;;;;;;;;;;5045152;28;20104;-61
2023/07/02 09:26:19;;;;;;;12.90;12.30;;;;;;;;;;5045008;28;20084;-60
2023/07/02 09:28:44;;;;;;;11.93;11.40;;;;;;;;;;5045329;28;20609;-61
2023/07/02 09:31:09;;;;;;;12.63;12.03;;;;;;;;;;5044578;28;20033;-60
2023/07/02 09:33:34;;;;;;;12.20;11.60;;;;;;;;;;5039341;28;20275;-61
2023/07/02 09:36:00;;;;;;;11.47;10.97;;;;;;;;;;5045049;28;20249;-60
2023/07/02 09:38:25;;;;;;;12.20;11.60;;;;;;;;;;5045250;28;20746;-60
2023/07/02 09:40:52;;;;;;;11.77;11.27;;;;;;;;;;5038099;28;20274;-59
2023/07/02 09:43:21;;;;;;;12.10;11.50;;;;;;;;;;5041395;28;20029;-61
2023/07/02 09:45:48;;;;;;;11.65;11.15;;;;;;;;;;5035420;28;20032;-60
2023/07/02 09:48:16;;;;;;;12.10;11.57;;;;;;;;;;5037515;28;20045;-60
2023/07/02 09:50:43;;;;;;;11.57;11.07;;;;;;;;;;5038987;28;20021;-60
2023/07/02 09:53:09;;;;;;;12.30;11.70;;;;;;;;;;5038801;28;20021;-61
2023/07/02 09:55:34;;;;;;;12.20;11.60;;;;;;;;;;5043553;28;20040;-61
2023/07/02 09:57:59;;;;;;;11.52;11.02;;;;;;;;;;5051385;28;20033;-61
2023/07/02 10:00:25;;;;;;;12.30;11.70;;;;;;;;;;5044012;28;20509;-60
2023/07/02 10:02:51;;;;;;;11.90;11.40;;;;;;;;;;5040067;28;20353;-60
2023/07/02 10:05:26;;;;;;;12.15;11.55;;;;;;;;;;5041283;28;20376;-61
2023/07/02 10:07:51;;;;;;;11.93;11.43;;;;;;;;;;5040616;28;20009;-61
2023/07/02 10:10:30;;;;;;;12.40;11.80;;;;;;;;;;5043797;28;20414;-62
2023/07/02 10:12:55;;;;;;;12.52;11.93;;;;;;;;;;5036984;28;20267;-60
2023/07/02 10:15:27;;;;;;;12.20;11.60;;;;;;;;;;5042148;28;20120;-60
2023/07/02 10:17:56;;;;;;;11.93;11.43;;;;;;;;;;5039126;28;20033;-60
2023/07/02 10:20:42;;;;;;;13.27;12.68;;;;;;;;;;5044936;28;20115;-59
2023/07/02 10:23:08;;;;;;;12.00;11.45;;;;;;;;;;5038542;28;20029;-60
2023/07/02 10:25:37;;;;;;;12.18;11.60;;;;;;;;;;5041025;28;20017;-61
2023/07/02 10:28:13;;;;;;;12.25;11.65;;;;;;;;;;5044339;28;20615;-60
2023/07/02 10:30:38;;;;;;;11.63;11.13;;;;;;;;;;5041654;28;20412;-61
2023/07/02 10:33:11;;;;;;;12.20;11.63;;;;;;;;;;5045049;28;20021;-60
2023/07/02 10:35:36;;;;;;;11.40;10.90;;;;;;;;;;5047098;28;20037;-61
2023/07/02 10:38:02;;;;;;;11.35;10.85;;;;;;;;;;5046554;28;20062;-61
2023/07/02 10:40:27;;;;;;;12.38;11.77;;;;;;;;;;5050191;28;20091;-60
2023/07/02 10:42:53;;;;;;;11.40;10.90;;;;;;;;;;5047638;28;20495;-60
2023/07/02 10:45:19;;;;;;;11.48;10.98;;;;;;;;;;5043792;28;20552;-60
2023/07/02 10:47:44;;;;;;;11.90;11.40;;;;;;;;;;5040877;28;20739;-61
2023/07/02 10:50:20;;;;;;;11.88;11.38;;;;;;;;;;5044670;28;20067;-61
2023/07/02 10:52:46;;;;;;;11.40;10.90;;;;;;;;;;5039137;28;20624;-62
2023/07/02 10:55:16;;;;;;;11.70;11.20;;;;;;;;;;5047753;28;20040;-64
2023/07/02 10:57:41;;;;;;;11.73;11.23;;;;;;;;;;5044804;28;20112;-61
2023/07/02 11:00:07;;;;;;;11.70;11.20;;;;;;;;;;5040819;28;20105;-63
2023/07/02 11:02:34;;;;;;;11.40;10.90;;;;;;;;;;5047314;28;20090;-60
2023/07/02 11:04:59;;;;;;;11.23;10.73;;;;;;;;;;5045893;28;20075;-61
2023/07/02 11:07:25;;;;;;;11.70;11.20;;;;;;;;;;5046834;28;20025;-61
2023/07/02 11:09:51;;;;;;;11.97;11.43;;;;;;;;;;5045715;28;20095;-62
2023/07/02 11:12:16;;;;;;;12.00;11.50;;;;;;;;;;5044794;28;20277;-62
2023/07/02 11:14:42;;;;;;;11.70;11.20;;;;;;;;;;5047118;28;20036;-60
2023/07/02 11:17:07;;;;;;;11.40;10.90;;;;;;;;;;5043212;28;20017;-60
2023/07/02 11:19:33;;;;;;;11.13;10.63;;;;;;;;;;5047829;28;20311;-60
2023/07/02 11:21:58;;;;;;;11.38;10.88;;;;;;;;;;5029106;28;20444;-60
2023/07/02 11:24:31;;;;;;;11.88;11.38;;;;;;;;;;5042990;28;20068;-63
2023/07/02 11:26:57;;;;;;;11.73;11.23;;;;;;;;;;5041708;28;20037;-60
2023/07/02 11:29:23;;;;;;;11.32;10.82;;;;;;;;;;5044536;28;20519;-60
2023/07/02 11:31:48;;;;;;;11.50;11.00;;;;;;;;;;5045899;28;20017;-62
2023/07/02 11:34:14;;;;;;;11.93;11.43;;;;;;;;;;5046418;28;20090;-61
2023/07/02 11:36:39;;;;;;;12.45;11.85;;;;;;;;;;5046772;28;21064;-61
2023/07/02 11:39:05;;;;;;;11.57;11.07;;;;;;;;;;5046648;28;20028;-61
2023/07/02 11:41:37;;;;;;;11.63;11.13;;;;;;;;;;5042968;28;20347;-60
2023/07/02 11:44:03;;;;;;;11.40;10.90;;;;;;;;;;5035418;28;20028;-61
2023/07/02 11:46:28;;;;;;;11.73;11.23;;;;;;;;;;5040678;28;20017;-61
2023/07/02 11:48:53;;;;;;;11.63;11.13;;;;;;;;;;5044650;28;20032;-62
2023/07/02 11:51:19;;;;;;;12.27;11.67;;;;;;;;;;5046519;28;20025;-61
2023/07/02 11:53:44;;;;;;;11.90;11.40;;;;;;;;;;5047394;28;20638;-61
2023/07/02 11:56:09;;;;;;;12.00;11.50;;;;;;;;;;5044977;28;20024;-61
2023/07/02 11:58:35;;;;;;;11.73;11.23;;;;;;;;;;5048390;28;20319;-61
2023/07/02 12:01:00;;;;;;;11.52;11.02;;;;;;;;;;5045306;28;20403;-60
2023/07/02 12:03:25;;;;;;;11.40;10.90;;;;;;;;;;5045152;28;20041;-60
2023/07/02 12:05:51;;;;;;;11.07;10.57;;;;;;;;;;5043131;28;20031;-61
2023/07/02 12:08:16;;;;;;;11.70;11.20;;;;;;;;;;5048597;28;20112;-61
2023/07/02 12:10:42;;;;;;;11.52;11.02;;;;;;;;;;5045957;28;20094;-61
2023/07/02 12:13:07;;;;;;;11.57;11.07;;;;;;;;;;5040542;28;20427;-62
2023/07/02 12:15:32;;;;;;;11.80;11.30;;;;;;;;;;5043883;28;20462;-61
2023/07/02 12:17:57;;;;;;;11.52;11.02;;;;;;;;;;5046732;28;20297;-60
2023/07/02 12:20:23;;;;;;;11.37;10.87;;;;;;;;;;5044994;28;20107;-60
2023/07/02 12:22:48;;;;;;;11.90;11.40;;;;;;;;;;5040572;28;20522;-61
2023/07/02 12:25:13;;;;;;;11.50;11.00;;;;;;;;;;5043123;28;20270;-61
2023/07/02 12:27:39;;;;;;;12.00;11.50;;;;;;;;;;5046413;28;20026;-61
2023/07/02 12:30:05;;;;;;;11.82;11.32;;;;;;;;;;5045268;28;20032;-59
2023/07/02 12:32:30;;;;;;;11.50;11.00;;;;;;;;;;5050197;28;20083;-60
2023/07/02 12:34:55;;;;;;;12.30;11.70;;;;;;;;;;5041627;28;20033;-60
2023/07/02 12:37:21;;;;;;;11.97;11.47;;;;;;;;;;5027703;28;20101;-60
2023/07/02 12:39:46;;;;;;;11.32;10.82;;;;;;;;;;5025884;28;20272;-60
2023/07/02 12:42:13;;;;;;;11.43;10.93;;;;;;;;;;5044102;28;20098;-60
2023/07/02 12:44:38;;;;;;;11.52;11.02;;;;;;;;;;5042005;28;20097;-60
2023/07/02 12:47:03;;;;;;;11.70;11.20;;;;;;;;;;5049230;28;20036;-59
2023/07/02 12:49:28;;;;;;;11.73;11.23;;;;;;;;;;5038323;28;20083;-60
2023/07/02 12:51:54;;;;;;;11.70;11.20;;;;;;;;;;5043345;28;20104;-60
2023/07/02 12:54:19;;;;;;;11.73;11.23;;;;;;;;;;5039465;28;20649;-61
2023/07/02 12:56:45;;;;;;;11.13;10.63;;;;;;;;;;5043092;28;20021;-61
2023/07/02 12:59:10;;;;;;;11.60;11.10;;;;;;;;;;5041525;28;20040;-62
2023/07/02 13:01:36;;;;;;;11.80;11.30;;;;;;;;;;5046753;28;20052;-61
2023/07/02 13:04:03;;;;;;;11.90;11.40;;;;;;;;;;5046870;28;20262;-60
2023/07/02 13:06:28;;;;;;;11.75;11.25;;;;;;;;;;5041890;28;20266;-61
2023/07/02 13:08:55;;;;;;;11.32;10.82;;;;;;;;;;5045422;28;20036;-60
2023/07/02 13:11:20;;;;;;;11.68;11.18;;;;;;;;;;5037870;28;20029;-59
2023/07/02 13:13:46;;;;;;;11.40;10.90;;;;;;;;;;5051672;28;20021;-61
2023/07/02 13:16:11;;;;;;;11.90;11.40;;;;;;;;;;5050359;28;20029;-60
2023/07/02 13:18:36;;;;;;;11.57;11.07;;;;;;;;;;5038891;28;20030;-60
2023/07/02 13:21:02;;;;;;;11.65;11.15;;;;;;;;;;5043486;28;20373;-61
2023/07/02 13:23:27;;;;;;;11.83;11.33;;;;;;;;;;5045416;28;20025;-61
2023/07/02 13:25:52;;;;;;;12.23;11.63;;;;;;;;;;5030773;28;20308;-61
2023/07/02 13:28:19;;;;;;;12.95;12.35;;;;;;;;;;5043630;28;20058;-61
2023/07/02 13:30:44;;;;;;;11.70;11.20;;;;;;;;;;5038029;28;20393;-61
2023/07/02 13:33:10;;;;;;;11.57;11.07;;;;;;;;;;5049977;28;20051;-60
2023/07/02 13:35:37;;;;;;;11.17;10.67;;;;;;;;;;5044464;28;20295;-60
2023/07/02 13:38:04;;;;;;;12.35;11.75;;;;;;;;;;5053293;28;20032;-60
2023/07/02 13:40:30;;;;;;;11.20;10.70;;;;;;;;;;5044977;28;20598;-62
2023/07/02 13:42:55;;;;;;;11.88;11.38;;;;;;;;;;5030349;28;20033;-61
2023/07/02 13:45:21;;;;;;;12.35;11.75;;;;;;;;;;5044880;28;20031;-60
2023/07/02 13:47:46;;;;;;;12.20;11.60;;;;;;;;;;5049000;28;20649;-60
2023/07/02 13:50:12;;;;;;;13.95;13.25;;;;;;;;;;5041310;28;20021;-60
2023/07/02 13:52:37;;;;;;;11.65;11.15;;;;;;;;;;5050202;28;20039;-61
2023/07/02 13:55:02;;;;;;;12.40;11.80;;;;;;;;;;5048823;28;20499;-60
2023/07/02 13:57:28;;;;;;;11.80;11.30;;;;;;;;;;5054376;28;20103;-60
2023/07/02 13:59:54;;;;;;;12.57;11.98;;;;;;;;;;5044065;28;20021;-60
2023/07/02 14:02:20;;;;;;;12.50;11.90;;;;;;;;;;5050384;28;20543;-60
2023/07/02 14:04:45;;;;;;;11.57;11.07;;;;;;;;;;5041680;28;20021;-61
2023/07/02 14:07:11;;;;;;;11.80;11.30;;;;;;;;;;5030315;28;20046;-60
2023/07/02 14:09:37;;;;;;;12.00;11.50;;;;;;;;;;5043685;28;20356;-60